createdAt,value
2023-04-23T00:01:58.213Z,12.03
2023-04-23T00:04:26.540Z,13.10
2023-04-23T00:06:55.565Z,12.70
2023-04-23T00:09:23.898Z,11.97
2023-04-23T00:11:51.339Z,12.93
2023-04-23T00:14:18.780Z,13.50
2023-04-23T00:16:46.308Z,13.33
2023-04-23T00:19:13.557Z,12.83
2023-04-23T00:21:40.801Z,14.27
2023-04-23T00:24:08.404Z,12.67
2023-04-23T00:26:35.575Z,13.20
2023-04-23T00:29:02.915Z,13.27
2023-04-23T00:31:30.506Z,14.03
2023-04-23T00:33:57.742Z,13.50
2023-04-23T00:36:25.980Z,14.27
2023-04-23T00:38:53.635Z,13.67
2023-04-23T00:41:21.663Z,13.70
2023-04-23T00:43:52.376Z,14.97
2023-04-23T00:46:20.020Z,14.30
2023-04-23T00:48:47.858Z,15.07
2023-04-23T00:51:17.368Z,13.97
2023-04-23T00:53:44.818Z,15.40
2023-04-23T00:56:12.104Z,14.40
2023-04-23T00:58:40.140Z,14.90
2023-04-23T01:01:08.100Z,14.23
2023-04-23T01:03:36.836Z,15.27
2023-04-23T01:06:04.798Z,14.53
2023-04-23T01:08:33.125Z,14.97
2023-04-23T01:11:02.481Z,13.90
2023-04-23T01:13:30.596Z,13.90
2023-04-23T01:15:58.254Z,13.77
2023-04-23T01:18:26.749Z,13.93
2023-04-23T01:20:54.056Z,13.97
2023-04-23T01:23:21.760Z,14.00
2023-04-23T01:25:49.431Z,13.90
2023-04-23T01:28:17.256Z,13.90
2023-04-23T01:30:45.729Z,13.83
2023-04-23T01:33:13.494Z,14.30
2023-04-23T01:35:41.401Z,13.90
2023-04-23T01:38:14.036Z,16.27
2023-04-23T01:40:41.414Z,18.87
2023-04-23T01:43:08.635Z,18.40
2023-04-23T01:45:36.089Z,18.97
2023-04-23T01:48:04.312Z,19.93
2023-04-23T01:50:31.589Z,22.53
2023-04-23T01:52:58.829Z,25.60
2023-04-23T01:55:26.129Z,26.47
2023-04-23T01:57:53.398Z,26.57
2023-04-23T02:00:20.662Z,25.70
2023-04-23T02:02:48.183Z,27.50
2023-04-23T02:05:21.030Z,26.30
2023-04-23T02:07:50.842Z,25.70
2023-04-23T02:10:21.367Z,25.07
2023-04-23T02:12:49.798Z,23.67
2023-04-23T02:15:17.163Z,23.93
2023-04-23T02:17:44.361Z,22.97
2023-04-23T02:20:12.291Z,21.83
2023-04-23T02:22:41.753Z,21.20
2023-04-23T02:25:09.402Z,21.70
2023-04-23T02:27:36.851Z,20.57
2023-04-23T02:30:05.073Z,19.00
2023-04-23T02:32:32.242Z,18.70
2023-04-23T02:35:01.969Z,19.70
2023-04-23T02:37:29.809Z,18.50
2023-04-23T02:39:56.991Z,22.00
2023-04-23T02:42:24.163Z,22.83
2023-04-23T02:44:51.910Z,24.00
2023-04-23T02:47:19.478Z,19.90
2023-04-23T02:49:46.750Z,20.47
2023-04-23T02:52:14.554Z,19.97
2023-04-23T02:54:42.013Z,19.87
2023-04-23T02:57:10.121Z,21.57
2023-04-23T02:59:37.839Z,18.93
2023-04-23T03:02:05.100Z,18.50
2023-04-23T03:04:33.122Z,17.37
2023-04-23T03:07:00.304Z,18.33
2023-04-23T03:09:27.893Z,17.87
2023-04-23T03:11:55.826Z,18.00
2023-04-23T03:14:23.419Z,18.40
2023-04-23T03:16:50.992Z,17.33
2023-04-23T03:19:18.572Z,16.17
2023-04-23T03:21:45.847Z,16.10
2023-04-23T03:24:14.583Z,14.70
2023-04-23T03:26:41.832Z,14.70
2023-04-23T03:29:10.501Z,14.43
2023-04-23T03:31:37.777Z,15.17
2023-04-23T03:34:06.042Z,16.27
2023-04-23T03:36:35.741Z,15.33
2023-04-23T03:39:04.272Z,16.67
2023-04-23T03:41:44.118Z,15.27
2023-04-23T03:44:13.327Z,15.87
2023-04-23T03:46:43.476Z,15.50
2023-04-23T03:49:11.248Z,15.67
2023-04-23T03:51:39.741Z,16.63
2023-04-23T03:54:08.843Z,16.03
2023-04-23T03:56:40.807Z,13.70
2023-04-23T03:59:27.389Z,12.10
2023-04-23T04:01:58.343Z,13.50
2023-04-23T04:04:27.187Z,12.43
2023-04-23T04:06:56.745Z,12.53
2023-04-23T04:09:28.409Z,13.20
2023-04-23T04:11:55.802Z,12.03
2023-04-23T04:14:23.216Z,12.30
2023-04-23T04:16:50.913Z,11.77
2023-04-23T04:19:19.137Z,10.90
2023-04-23T04:21:46.483Z,11.27
2023-04-23T04:24:13.945Z,11.70
2023-04-23T04:26:41.948Z,10.87
2023-04-23T04:29:10.403Z,10.93
2023-04-23T04:31:37.864Z,10.60
2023-04-23T04:34:07.017Z,10.90
2023-04-23T04:36:35.573Z,10.00
2023-04-23T04:39:03.451Z,10.47
2023-04-23T04:41:30.816Z,10.13
2023-04-23T04:43:58.513Z,10.30
2023-04-23T04:46:28.968Z,10.40
2023-04-23T04:48:56.186Z,10.67
2023-04-23T04:51:23.434Z,11.17
2023-04-23T04:53:50.823Z,10.87
2023-04-23T04:56:18.037Z,10.60
2023-04-23T04:58:45.610Z,11.13
2023-04-23T05:01:13.371Z,10.97
2023-04-23T05:03:41.269Z,8.80
2023-04-23T05:06:08.517Z,9.27
2023-04-23T05:08:35.678Z,7.10
2023-04-23T05:11:03.826Z,8.53
2023-04-23T05:13:31.072Z,7.63
2023-04-23T05:15:58.269Z,6.27
2023-04-23T05:18:25.913Z,6.57
2023-04-23T05:20:53.592Z,6.93
2023-04-23T05:23:21.269Z,7.53
2023-04-23T05:25:50.191Z,6.00
2023-04-23T05:28:17.981Z,6.67
2023-04-23T05:30:45.173Z,5.77
2023-04-23T05:33:12.502Z,5.70
2023-04-23T05:35:39.700Z,5.50
2023-04-23T05:38:07.259Z,5.13
2023-04-23T05:40:34.816Z,5.13
2023-04-23T05:43:02.231Z,5.83
2023-04-23T05:45:29.385Z,6.30
2023-04-23T05:47:56.535Z,7.40
2023-04-23T05:50:24.303Z,7.77
2023-04-23T05:52:52.232Z,7.73
2023-04-23T05:55:20.810Z,8.23
2023-04-23T05:57:48.074Z,9.40
2023-04-23T06:00:16.845Z,7.50
2023-04-23T06:02:44.315Z,8.70
2023-04-23T06:05:12.091Z,8.13
2023-04-23T06:07:41.066Z,7.30
2023-04-23T06:10:08.784Z,7.30
2023-04-23T06:12:39.131Z,8.20
2023-04-23T06:15:10.462Z,7.17
2023-04-23T06:17:37.987Z,6.90
2023-04-23T06:20:06.155Z,6.30
2023-04-23T06:22:33.380Z,6.70
2023-04-23T06:25:01.274Z,6.50
2023-04-23T06:27:28.578Z,6.90
2023-04-23T06:30:01.381Z,6.10
2023-04-23T06:32:29.543Z,6.13
2023-04-23T06:35:01.650Z,6.07
2023-04-23T06:37:32.176Z,6.60
2023-04-23T06:39:59.897Z,6.80
2023-04-23T06:42:27.260Z,5.87
2023-04-23T06:45:17.676Z,6.00
2023-04-23T06:47:45.104Z,5.63
2023-04-23T06:50:12.942Z,5.40
2023-04-23T06:52:40.581Z,5.63
2023-04-23T06:55:08.588Z,5.60
2023-04-23T06:57:36.126Z,5.00
2023-04-23T07:00:07.169Z,6.60
2023-04-23T07:02:38.749Z,6.00
2023-04-23T07:05:06.145Z,6.40
2023-04-23T07:07:36.156Z,6.33
2023-04-23T07:10:05.360Z,5.63
2023-04-23T07:12:32.560Z,5.33
2023-04-23T07:14:59.739Z,5.80
2023-04-23T07:17:27.002Z,5.67
2023-04-23T07:19:54.196Z,6.30
2023-04-23T07:22:21.483Z,6.07
2023-04-23T07:24:48.991Z,6.50
2023-04-23T07:27:16.248Z,6.10
2023-04-23T07:29:43.451Z,6.00
2023-04-23T07:32:11.222Z,5.60
2023-04-23T07:34:39.150Z,6.83
2023-04-23T07:37:06.565Z,6.97
2023-04-23T07:39:34.536Z,6.70
2023-04-23T07:42:05.497Z,6.50
2023-04-23T07:44:32.664Z,7.40
2023-04-23T07:47:00.590Z,6.40
2023-04-23T07:49:29.249Z,6.80
2023-04-23T07:51:56.595Z,7.97
2023-04-23T07:54:25.650Z,7.80
2023-04-23T07:56:52.978Z,8.73
2023-04-23T07:59:20.422Z,9.53
2023-04-23T08:01:47.595Z,10.13
2023-04-23T08:04:15.080Z,9.33
2023-04-23T08:06:42.527Z,9.90
2023-04-23T08:09:10.942Z,8.90
2023-04-23T08:11:38.297Z,9.87
2023-04-23T08:14:06.368Z,9.60
2023-04-23T08:16:34.760Z,9.27
2023-04-23T08:19:06.209Z,9.50
2023-04-23T08:21:35.919Z,8.97
2023-04-23T08:24:03.502Z,9.47
2023-04-23T08:26:31.952Z,8.97
2023-04-23T08:29:00.791Z,9.40
2023-04-23T08:31:28.387Z,8.53
2023-04-23T08:33:56.327Z,9.83
2023-04-23T08:36:24.653Z,9.77
2023-04-23T08:38:52.054Z,9.13
2023-04-23T08:41:23.221Z,10.97
2023-04-23T08:44:07.495Z,11.00
2023-04-23T08:46:36.563Z,10.00
2023-04-23T08:49:04.871Z,10.40
2023-04-23T08:51:37.844Z,9.97
2023-04-23T08:54:06.493Z,10.10
2023-04-23T08:56:34.952Z,10.20
2023-04-23T08:59:03.823Z,9.00
2023-04-23T09:01:32.046Z,9.73
2023-04-23T09:04:00.652Z,9.90
2023-04-23T09:06:28.260Z,9.60
2023-04-23T09:08:56.142Z,9.73
2023-04-23T09:11:26.876Z,10.27
2023-04-23T09:13:56.598Z,10.70
2023-04-23T09:16:23.833Z,10.47
2023-04-23T09:18:52.395Z,12.47
2023-04-23T09:21:20.841Z,10.40
2023-04-23T09:23:52.059Z,10.80
2023-04-23T09:26:23.302Z,11.20
2023-04-23T09:28:51.278Z,11.00
2023-04-23T09:31:23.881Z,12.03
2023-04-23T09:33:55.043Z,12.70
2023-04-23T09:36:23.688Z,11.70
2023-04-23T09:38:55.741Z,13.10
2023-04-23T09:41:28.234Z,12.73
2023-04-23T09:43:56.983Z,13.57
2023-04-23T09:46:38.330Z,13.30
2023-04-23T09:49:10.186Z,12.40
2023-04-23T09:51:37.912Z,12.10
2023-04-23T09:54:10.589Z,11.00
2023-04-23T09:56:38.312Z,11.97
2023-04-23T09:59:46.140Z,11.10
2023-04-23T10:02:14.893Z,10.43
2023-04-23T10:04:42.880Z,9.27
2023-04-23T10:09:44.243Z,8.63
2023-04-23T10:12:31.345Z,8.30
2023-04-23T10:15:00.443Z,7.20
2023-04-23T10:17:27.873Z,6.97
2023-04-23T10:19:55.990Z,7.40
2023-04-23T10:22:24.804Z,6.93
2023-04-23T10:24:58.824Z,8.37
2023-04-23T10:27:44.627Z,7.50
2023-04-23T10:30:20.003Z,7.30
2023-04-23T10:32:49.426Z,7.33
2023-04-23T10:35:16.793Z,7.53
2023-04-23T10:37:48.070Z,7.07
2023-04-23T10:40:21.991Z,6.23
2023-04-23T10:42:50.978Z,5.70
2023-04-23T10:45:25.682Z,5.80
2023-04-23T10:47:55.333Z,5.10
2023-04-23T10:50:31.012Z,5.73
2023-04-23T10:52:59.155Z,5.80
2023-04-23T10:55:28.786Z,5.90
2023-04-23T10:58:05.245Z,5.63
2023-04-23T11:00:48.406Z,6.40
2023-04-23T11:03:34.341Z,5.77
2023-04-23T11:06:06.014Z,6.03
2023-04-23T11:08:37.491Z,6.13
2023-04-23T11:11:09.057Z,6.30
2023-04-23T11:13:36.701Z,5.93
2023-04-23T11:16:21.798Z,5.27
2023-04-23T11:19:20.553Z,4.80
2023-04-23T11:22:06.648Z,5.97
2023-04-23T11:24:48.267Z,5.57
2023-04-23T11:27:20.313Z,5.53
2023-04-23T11:29:47.801Z,5.80
2023-04-23T11:32:17.185Z,5.03
2023-04-23T11:34:47.523Z,6.00
2023-04-23T11:37:17.435Z,5.27
2023-04-23T11:39:47.395Z,5.27
2023-04-23T11:42:15.922Z,5.23
2023-04-23T11:44:44.881Z,4.63
2023-04-23T11:47:14.155Z,4.80
2023-04-23T11:49:43.549Z,5.27
2023-04-23T11:52:12.787Z,4.80
2023-04-23T11:54:42.133Z,4.67
2023-04-23T11:57:10.062Z,4.67
2023-04-23T11:59:37.427Z,4.50
2023-04-23T12:02:05.096Z,4.90
2023-04-23T12:04:33.225Z,4.83
2023-04-23T12:07:00.629Z,5.03
2023-04-23T12:09:29.535Z,4.47
2023-04-23T12:11:58.506Z,4.33
2023-04-23T12:14:30.896Z,3.90
2023-04-23T12:17:08.509Z,3.20
2023-04-23T12:19:36.552Z,3.90
2023-04-23T12:22:04.373Z,3.60
2023-04-23T12:24:46.404Z,3.70
2023-04-23T12:27:16.002Z,3.70
2023-04-23T12:29:43.668Z,3.97
2023-04-23T12:32:12.171Z,4.17
2023-04-23T12:34:52.933Z,3.43
2023-04-23T12:37:29.297Z,4.10
2023-04-23T12:39:59.358Z,3.60
2023-04-23T12:42:26.888Z,3.90
2023-04-23T12:45:07.966Z,3.20
2023-04-23T12:47:35.579Z,3.53
2023-04-23T12:50:03.938Z,4.23
2023-04-23T12:52:31.271Z,4.00
2023-04-23T12:55:00.460Z,3.57
2023-04-23T12:57:28.444Z,3.90
2023-04-23T12:59:55.770Z,2.97
2023-04-23T13:02:24.616Z,3.07
2023-04-23T13:04:51.989Z,3.30
2023-04-23T13:07:19.325Z,3.30
2023-04-23T13:09:46.935Z,3.00
2023-04-23T13:12:14.106Z,3.47
2023-04-23T13:14:41.508Z,3.50
2023-04-23T13:17:08.721Z,2.87
2023-04-23T13:19:37.548Z,4.10
2023-04-23T13:22:06.083Z,3.63
2023-04-23T13:24:33.508Z,2.80
2023-04-23T13:27:01.715Z,3.60
2023-04-23T13:29:29.231Z,2.90
2023-04-23T13:31:58.080Z,2.70
2023-04-23T13:34:25.816Z,3.37
2023-04-23T13:36:53.182Z,2.90
2023-04-23T13:39:21.318Z,2.60
2023-04-23T13:41:56.347Z,2.57
2023-04-23T13:44:33.845Z,2.97
2023-04-23T13:47:01.219Z,3.47
2023-04-23T13:49:28.519Z,2.93
2023-04-23T13:52:00.210Z,3.40
2023-04-23T13:54:27.831Z,3.67
2023-04-23T13:56:58.312Z,3.73
2023-04-23T13:59:26.057Z,3.73
2023-04-23T14:01:55.476Z,3.53
2023-04-23T14:04:24.163Z,3.00
2023-04-23T14:06:51.747Z,3.30
2023-04-23T14:09:19.063Z,4.37
2023-04-23T14:11:46.468Z,4.70
2023-04-23T14:14:13.823Z,4.73
2023-04-23T14:16:41.139Z,5.70
2023-04-23T14:19:08.451Z,4.80
2023-04-23T14:21:37.774Z,5.47
2023-04-23T14:24:16.822Z,5.47
2023-04-23T14:26:49.444Z,5.13
2023-04-23T14:29:41.699Z,6.07
2023-04-23T14:32:09.181Z,6.67
2023-04-23T14:34:36.661Z,5.33
2023-04-23T14:37:05.101Z,5.20
2023-04-23T14:39:34.069Z,5.50
2023-04-23T14:42:01.395Z,5.10
2023-04-23T14:44:29.063Z,4.90
2023-04-23T14:46:56.752Z,5.17
2023-04-23T14:49:24.503Z,5.47
2023-04-23T14:51:57.568Z,5.30
2023-04-23T14:54:24.893Z,5.60
2023-04-23T14:56:52.381Z,5.77
2023-04-23T14:59:20.550Z,5.20
2023-04-23T15:01:48.426Z,5.20
2023-04-23T15:04:16.267Z,4.50
2023-04-23T15:06:43.668Z,3.40
2023-04-23T15:09:11.098Z,3.60
2023-04-23T15:11:41.522Z,2.83
2023-04-23T15:14:20.889Z,2.87
2023-04-23T15:16:49.790Z,3.17
2023-04-23T15:19:18.898Z,3.30
2023-04-23T15:21:47.279Z,2.83
2023-04-23T15:24:15.866Z,3.13
2023-04-23T15:26:43.690Z,3.53
2023-04-23T15:29:13.202Z,2.50
2023-04-23T15:31:40.794Z,3.03
2023-04-23T15:34:09.635Z,2.90
2023-04-23T15:36:37.896Z,2.83
2023-04-23T15:39:07.473Z,2.37
2023-04-23T15:41:39.444Z,3.00
2023-04-23T15:44:11.493Z,2.87
2023-04-23T15:46:39.306Z,2.77
2023-04-23T15:49:06.706Z,3.20
2023-04-23T15:51:35.409Z,2.87
2023-04-23T15:54:02.823Z,3.93
2023-04-23T15:56:30.172Z,3.20
2023-04-23T15:58:57.522Z,3.33
2023-04-23T16:01:27.101Z,3.60
2023-04-23T16:04:09.679Z,2.70
2023-04-23T16:06:37.960Z,2.57
2023-04-23T16:09:08.306Z,3.40
2023-04-23T16:11:37.704Z,2.80
2023-04-23T16:14:06.250Z,2.80
2023-04-23T16:16:33.648Z,3.00
2023-04-23T16:19:02.583Z,2.70
2023-04-23T16:21:31.934Z,2.80
2023-04-23T16:23:59.955Z,2.43
2023-04-23T16:26:28.747Z,2.20
2023-04-23T16:29:16.940Z,1.73
2023-04-23T16:31:44.107Z,2.40
2023-04-23T16:34:11.458Z,1.90
2023-04-23T16:36:38.902Z,1.90
2023-04-23T16:39:06.485Z,1.87
2023-04-23T16:41:33.813Z,1.90
2023-04-23T16:44:01.164Z,1.87
2023-04-23T16:46:30.858Z,1.90
2023-04-23T16:48:58.560Z,1.50
2023-04-23T16:51:26.798Z,1.60
2023-04-23T16:53:54.594Z,1.60
2023-04-23T16:56:23.130Z,2.00
2023-04-23T16:59:16.052Z,1.80
2023-04-23T17:01:43.428Z,1.70
2023-04-23T17:04:11.558Z,1.57
2023-04-23T17:06:39.065Z,1.80
2023-04-23T17:09:09.240Z,1.60
2023-04-23T17:11:36.642Z,1.97
2023-04-23T17:14:03.927Z,2.30
2023-04-23T17:16:31.426Z,1.83
2023-04-23T17:18:59.482Z,1.90
2023-04-23T17:21:27.206Z,2.23
2023-04-23T17:23:54.708Z,1.83
2023-04-23T17:26:22.072Z,2.23
2023-04-23T17:28:49.395Z,2.30
2023-04-23T17:31:17.857Z,2.00
2023-04-23T17:33:48.879Z,2.73
2023-04-23T17:36:17.136Z,1.90
2023-04-23T17:38:45.693Z,2.00
2023-04-23T17:41:13.269Z,2.03
2023-04-23T17:43:40.987Z,2.47
2023-04-23T17:46:08.689Z,1.90
2023-04-23T17:48:36.062Z,2.10
2023-04-23T17:51:03.962Z,2.60
2023-04-23T17:53:31.431Z,2.70
2023-04-23T17:56:02.584Z,2.30
2023-04-23T17:58:30.540Z,2.73
2023-04-23T18:00:57.953Z,3.07
2023-04-23T18:03:27.783Z,2.90
2023-04-23T18:05:55.746Z,3.53
2023-04-23T18:08:23.031Z,3.27
2023-04-23T18:10:50.562Z,3.77
2023-04-23T18:13:18.312Z,3.60
2023-04-23T18:15:49.970Z,3.07
2023-04-23T18:18:18.683Z,3.17
2023-04-23T18:20:47.334Z,3.97
2023-04-23T18:23:15.788Z,3.13
2023-04-23T18:28:23.877Z,3.87
2023-04-23T18:30:51.776Z,3.70
2023-04-23T18:33:34.020Z,3.53
2023-04-23T18:36:05.532Z,4.13
2023-04-23T18:38:45.436Z,4.03
2023-04-23T18:41:13.365Z,4.10
2023-04-23T18:43:40.765Z,3.87
2023-04-23T18:46:08.162Z,4.13
2023-04-23T18:48:35.671Z,3.93
2023-04-23T18:51:19.191Z,3.60
2023-04-23T18:53:47.602Z,4.57
2023-04-23T18:56:15.215Z,4.50
2023-04-23T18:58:42.566Z,4.40
2023-04-23T19:01:10.176Z,5.00
2023-04-23T19:03:37.998Z,5.33
2023-04-23T19:06:07.569Z,5.97
2023-04-23T19:08:35.600Z,5.17
2023-04-23T19:11:04.067Z,5.23
2023-04-23T19:13:31.498Z,5.47
2023-04-23T19:15:59.528Z,5.10
2023-04-23T19:18:27.280Z,5.37
2023-04-23T19:20:55.177Z,5.37
2023-04-23T19:23:22.528Z,5.70
2023-04-23T19:25:49.875Z,5.20
2023-04-23T19:28:17.312Z,4.90
2023-04-23T19:30:44.750Z,5.50
2023-04-23T19:33:12.246Z,5.23
2023-04-23T19:35:40.377Z,5.47
2023-04-23T19:38:08.582Z,5.93
2023-04-23T19:40:36.158Z,5.50
2023-04-23T19:43:03.636Z,5.87
2023-04-23T19:45:32.250Z,6.00
2023-04-23T19:48:00.131Z,5.80
2023-04-23T19:50:27.523Z,5.90
2023-04-23T19:52:55.231Z,5.10
2023-04-23T19:55:26.838Z,5.30
2023-04-23T19:57:55.246Z,4.90
2023-04-23T20:00:24.062Z,5.30
2023-04-23T20:02:52.546Z,5.70
2023-04-23T20:05:21.397Z,5.20
2023-04-23T20:07:48.905Z,6.10
2023-04-23T20:10:17.534Z,5.00
2023-04-23T20:12:45.553Z,5.10
2023-04-23T20:15:13.709Z,6.10
2023-04-23T20:17:41.492Z,5.63
2023-04-23T20:20:10.521Z,6.37
2023-04-23T20:22:37.981Z,5.70
2023-04-23T20:25:05.710Z,5.40
2023-04-23T20:27:33.112Z,6.00
2023-04-23T20:30:00.588Z,5.10
2023-04-23T20:32:28.448Z,5.33
2023-04-23T20:34:56.177Z,5.57
2023-04-23T20:37:26.945Z,6.20
2023-04-23T20:39:55.471Z,5.23
2023-04-23T20:42:23.119Z,6.10
2023-04-23T20:44:52.252Z,5.30
2023-04-23T20:47:19.462Z,5.40
2023-04-23T20:49:46.714Z,5.17
2023-04-23T20:52:15.182Z,5.87
2023-04-23T20:54:42.614Z,5.97
2023-04-23T20:57:10.999Z,5.93
2023-04-23T20:59:38.171Z,5.97
2023-04-23T21:02:07.118Z,5.70
2023-04-23T21:04:34.484Z,6.33
2023-04-23T21:07:01.896Z,6.03
2023-04-23T21:09:29.073Z,6.67
2023-04-23T21:11:56.843Z,6.00
2023-04-23T21:14:24.040Z,6.83
2023-04-23T21:16:53.003Z,6.17
2023-04-23T21:19:20.333Z,6.80
2023-04-23T21:21:47.637Z,6.07
2023-04-23T21:24:15.313Z,6.30
2023-04-23T21:26:42.954Z,6.73
2023-04-23T21:29:10.200Z,6.60
2023-04-23T21:31:46.514Z,6.63
2023-04-23T21:34:14.934Z,7.57
2023-04-23T21:36:44.552Z,7.40
2023-04-23T21:39:13.330Z,7.20
2023-04-23T21:41:40.844Z,7.27
2023-04-23T21:44:08.600Z,7.23
2023-04-23T21:46:35.839Z,7.43
2023-04-23T21:49:03.131Z,5.70
2023-04-23T21:51:30.348Z,6.20
2023-04-23T21:53:57.649Z,6.33
2023-04-23T21:56:24.845Z,5.83
2023-04-23T21:58:52.013Z,5.80
2023-04-23T22:01:19.282Z,6.27
2023-04-23T22:03:47.957Z,6.40
2023-04-23T22:06:15.837Z,7.07
2023-04-23T22:08:46.155Z,6.40
2023-04-23T22:11:14.569Z,7.23
2023-04-23T22:13:41.849Z,7.23
2023-04-23T22:16:24.451Z,6.57
2023-04-23T22:18:54.689Z,7.10
2023-04-23T22:21:21.943Z,8.43
2023-04-23T22:23:49.262Z,7.87
2023-04-23T22:26:16.479Z,8.10
2023-04-23T22:28:43.997Z,7.80
2023-04-23T22:31:11.936Z,8.67
2023-04-23T22:33:39.369Z,9.10
2023-04-23T22:36:07.037Z,8.73
2023-04-23T22:38:34.833Z,9.00
2023-04-23T22:41:02.249Z,8.83
2023-04-23T22:43:29.509Z,8.43
2023-04-23T22:45:57.042Z,9.60
2023-04-23T22:48:24.435Z,10.00
2023-04-23T22:50:52.491Z,9.97
2023-04-23T22:53:20.074Z,9.60
2023-04-23T22:55:47.360Z,9.47
2023-04-23T22:58:15.182Z,9.20
2023-04-23T23:00:42.347Z,9.97
2023-04-23T23:03:10.257Z,10.83
2023-04-23T23:05:37.772Z,10.97
2023-04-23T23:08:05.030Z,9.37
2023-04-23T23:10:32.248Z,9.63
2023-04-23T23:12:59.415Z,10.03
2023-04-23T23:15:26.583Z,12.90
2023-04-23T23:17:54.051Z,10.93
2023-04-23T23:20:21.652Z,9.60
2023-04-23T23:22:48.931Z,11.90
2023-04-23T23:25:16.522Z,10.93
2023-04-23T23:27:43.708Z,11.83
2023-04-23T23:30:11.457Z,12.87
2023-04-23T23:32:38.849Z,11.87
2023-04-23T23:35:06.605Z,12.80
2023-04-23T23:37:34.071Z,11.50
2023-04-23T23:40:01.216Z,11.60
2023-04-23T23:42:28.463Z,11.20
2023-04-23T23:44:56.105Z,13.23
2023-04-23T23:47:23.376Z,13.30
2023-04-23T23:49:50.635Z,12.00
2023-04-23T23:52:17.837Z,13.87
2023-04-23T23:54:45.351Z,12.60
2023-04-23T23:57:12.803Z,13.20
2023-04-23T23:59:40.051Z,12.33
